createdAt,value
2017-06-23T00:00:58.076Z,87.76
2017-06-23T00:01:58.652Z,87.57
2017-06-23T00:02:59.229Z,87.57
2017-06-23T00:03:59.806Z,87.76
2017-06-23T00:05:00.395Z,88.39
2017-06-23T00:06:00.973Z,88.20
2017-06-23T00:07:01.551Z,88.10
2017-06-23T00:08:02.128Z,88.10
2017-06-23T00:09:02.704Z,88.63
2017-06-23T00:10:03.282Z,88.34
2017-06-23T00:11:03.858Z,88.49
2017-06-23T00:12:04.436Z,89.01
2017-06-23T00:13:05.013Z,89.45
2017-06-23T00:14:05.590Z,89.64
2017-06-23T00:15:06.168Z,89.45
2017-06-23T00:16:06.744Z,89.74
2017-06-23T00:17:07.320Z,89.74
2017-06-23T00:18:07.897Z,89.45
2017-06-23T00:19:08.474Z,90.12
2017-06-23T00:20:09.050Z,89.64
2017-06-23T00:21:09.626Z,90.12
2017-06-23T00:22:10.203Z,90.12
2017-06-23T00:23:10.780Z,90.41
2017-06-23T00:24:11.356Z,90.22
2017-06-23T00:25:11.934Z,90.03
2017-06-23T00:26:12.510Z,89.83
2017-06-23T00:27:13.100Z,90.12
2017-06-23T00:28:13.675Z,90.12
2017-06-23T00:29:14.254Z,90.41
2017-06-23T00:30:14.831Z,90.41
2017-06-23T00:31:15.409Z,90.60
2017-06-23T00:32:15.985Z,90.60
2017-06-23T00:33:16.563Z,90.31
2017-06-23T00:34:17.140Z,90.51
2017-06-23T00:35:17.720Z,90.51
2017-06-23T00:36:18.295Z,90.60
2017-06-23T00:37:18.872Z,90.60
2017-06-23T00:38:19.449Z,90.60
2017-06-23T00:39:20.030Z,90.70
2017-06-23T00:40:20.616Z,91.08
2017-06-23T00:41:21.193Z,91.56
2017-06-23T00:42:21.771Z,91.37
2017-06-23T00:43:22.360Z,91.08
2017-06-23T00:44:22.937Z,91.75
2017-06-23T00:45:23.516Z,91.08
2017-06-23T00:46:24.093Z,91.08
2017-06-23T00:47:24.671Z,91.66
2017-06-23T00:48:25.250Z,91.18
2017-06-23T00:49:25.828Z,90.51
2017-06-23T00:50:26.406Z,90.60
2017-06-23T00:51:26.995Z,90.89
2017-06-23T00:52:27.584Z,91.08
2017-06-23T00:53:28.161Z,90.70
2017-06-23T00:54:28.737Z,90.80
2017-06-23T00:55:29.314Z,91.18
2017-06-23T00:56:29.903Z,90.41
2017-06-23T00:57:30.482Z,90.51
2017-06-23T00:58:31.058Z,90.89
2017-06-23T00:59:31.638Z,90.70
2017-06-23T01:00:32.214Z,90.60
2017-06-23T01:01:32.792Z,90.70
2017-06-23T01:02:33.369Z,91.08
2017-06-23T01:03:33.946Z,91.56
2017-06-23T01:04:34.523Z,91.47
2017-06-23T01:05:35.101Z,91.08
2017-06-23T01:06:35.678Z,91.28
2017-06-23T01:07:36.253Z,91.28
2017-06-23T01:08:36.831Z,91.08
2017-06-23T01:09:37.406Z,91.18
2017-06-23T01:10:37.983Z,91.66
2017-06-23T01:11:38.559Z,91.66
2017-06-23T01:12:39.136Z,91.37
2017-06-23T01:13:39.718Z,90.99
2017-06-23T01:14:40.290Z,91.85
2017-06-23T01:15:40.867Z,91.47
2017-06-23T01:16:41.443Z,91.75
2017-06-23T01:17:42.038Z,92.33
2017-06-23T01:18:42.597Z,92.24
2017-06-23T01:19:43.173Z,92.05
2017-06-23T01:20:43.762Z,92.24
2017-06-23T01:21:44.340Z,91.95
2017-06-23T01:22:44.927Z,92.62
2017-06-23T01:23:45.504Z,91.95
2017-06-23T01:24:46.081Z,92.62
2017-06-23T01:25:46.657Z,92.81
2017-06-23T01:26:47.234Z,92.81
2017-06-23T01:27:47.811Z,91.56
2017-06-23T01:28:48.387Z,92.81
2017-06-23T01:29:48.964Z,92.81
2017-06-23T01:30:49.543Z,92.72
2017-06-23T01:31:50.122Z,92.62
2017-06-23T01:32:50.699Z,92.91
2017-06-23T01:33:51.288Z,92.81
2017-06-23T01:34:51.865Z,92.52
2017-06-23T01:35:52.442Z,92.91
2017-06-23T01:36:53.032Z,93.29
2017-06-23T01:37:53.609Z,93.87
2017-06-23T01:38:54.187Z,93.68
2017-06-23T01:39:54.765Z,93.87
2017-06-23T01:40:55.342Z,93.49
2017-06-23T01:41:55.919Z,93.29
2017-06-23T01:42:56.496Z,94.26
2017-06-23T01:43:57.074Z,94.26
2017-06-23T01:44:57.650Z,93.96
2017-06-23T01:45:58.227Z,93.68
2017-06-23T01:46:58.802Z,93.49
2017-06-23T01:47:59.380Z,94.06
2017-06-23T01:48:59.956Z,93.77
2017-06-23T01:50:00.547Z,94.06
2017-06-23T01:51:01.122Z,94.16
2017-06-23T01:52:01.718Z,94.16
2017-06-23T01:53:02.291Z,94.31
2017-06-23T01:54:02.868Z,94.59
2017-06-23T01:55:03.447Z,95.07
2017-06-23T01:56:04.024Z,95.07
2017-06-23T01:57:04.603Z,94.83
2017-06-23T01:58:05.179Z,95.07
2017-06-23T01:59:05.759Z,95.17
2017-06-23T02:00:06.348Z,95.12
2017-06-23T02:01:06.926Z,95.21
2017-06-23T02:02:07.505Z,94.06
2017-06-23T02:03:08.082Z,94.73
2017-06-23T02:04:08.664Z,94.64
2017-06-23T02:05:09.238Z,94.73
2017-06-23T02:06:09.825Z,95.03
2017-06-23T02:07:10.404Z,94.69
2017-06-23T02:08:10.994Z,94.49
2017-06-23T02:09:11.570Z,95.12
2017-06-23T02:10:12.147Z,95.17
2017-06-23T02:11:12.725Z,95.26
2017-06-23T02:12:13.315Z,95.36
2017-06-23T02:13:13.891Z,95.40
2017-06-23T02:14:14.470Z,95.07
2017-06-23T02:15:15.048Z,94.88
2017-06-23T02:16:15.625Z,94.59
2017-06-23T02:17:16.201Z,94.69
2017-06-23T02:18:16.777Z,94.69
2017-06-23T02:19:17.354Z,94.49
2017-06-23T02:20:17.932Z,94.69
2017-06-23T02:21:18.510Z,94.49
2017-06-23T02:22:19.087Z,94.59
2017-06-23T02:23:19.665Z,94.78
2017-06-23T02:24:20.239Z,94.59
2017-06-23T02:25:20.816Z,94.78
2017-06-23T02:26:21.394Z,94.49
2017-06-23T02:27:21.972Z,93.73
2017-06-23T02:28:22.549Z,93.82
2017-06-23T02:29:23.128Z,93.92
2017-06-23T02:30:23.707Z,93.63
2017-06-23T02:31:24.286Z,93.87
2017-06-23T02:32:24.862Z,93.63
2017-06-23T02:33:25.446Z,93.92
2017-06-23T02:34:26.017Z,94.49
2017-06-23T02:35:26.606Z,93.54
2017-06-23T02:36:27.185Z,93.82
2017-06-23T02:37:27.761Z,94.31
2017-06-23T02:38:28.340Z,94.31
2017-06-23T02:39:28.917Z,94.06
2017-06-23T02:40:29.495Z,94.11
2017-06-23T02:41:30.073Z,94.59
2017-06-23T02:42:30.650Z,94.40
2017-06-23T02:43:31.227Z,94.78
2017-06-23T02:44:31.808Z,94.78
2017-06-23T02:45:32.385Z,94.98
2017-06-23T02:46:32.963Z,95.75
2017-06-23T02:47:33.541Z,95.45
2017-06-23T02:48:34.118Z,95.75
2017-06-23T02:49:34.707Z,95.75
2017-06-23T02:50:35.283Z,95.75
2017-06-23T02:51:35.861Z,96.42
2017-06-23T02:52:36.438Z,96.42
2017-06-23T02:53:37.014Z,96.13
2017-06-23T02:54:37.591Z,96.13
2017-06-23T02:55:38.167Z,95.75
2017-06-23T02:56:38.743Z,96.61
2017-06-23T02:57:39.320Z,95.94
2017-06-23T02:58:39.897Z,96.13
2017-06-23T02:59:40.474Z,96.70
2017-06-23T03:00:41.052Z,96.13
2017-06-23T03:01:41.629Z,96.42
2017-06-23T03:02:42.207Z,96.61
2017-06-23T03:03:42.786Z,96.89
2017-06-23T03:04:43.365Z,97.09
2017-06-23T03:05:43.941Z,97.28
2017-06-23T03:06:44.520Z,96.42
2017-06-23T03:07:45.099Z,97.19
2017-06-23T03:08:45.675Z,96.22
2017-06-23T03:09:46.253Z,96.99
2017-06-23T03:10:46.830Z,96.99
2017-06-23T03:11:47.408Z,97.38
2017-06-23T03:12:47.987Z,96.89
2017-06-23T03:13:48.564Z,97.19
2017-06-23T03:14:49.142Z,97.38
2017-06-23T03:15:49.725Z,97.19
2017-06-23T03:16:50.301Z,97.76
2017-06-23T03:17:50.879Z,98.05
2017-06-23T03:18:51.458Z,98.29
2017-06-23T03:19:52.037Z,98.19
2017-06-23T03:20:52.615Z,98.00
2017-06-23T03:21:53.193Z,97.91
2017-06-23T03:22:53.772Z,98.86
2017-06-23T03:23:54.350Z,98.63
2017-06-23T03:24:54.930Z,98.38
2017-06-23T03:25:55.510Z,98.14
2017-06-23T03:26:56.089Z,97.71
2017-06-23T03:27:56.680Z,96.66
2017-06-23T03:28:57.258Z,96.47
2017-06-23T03:29:57.837Z,96.37
2017-06-23T03:30:58.415Z,96.85
2017-06-23T03:31:59.006Z,97.33
2017-06-23T03:32:59.584Z,96.89
2017-06-23T03:34:00.176Z,97.14
2017-06-23T03:35:00.752Z,97.33
2017-06-23T03:36:01.332Z,97.71
2017-06-23T03:37:01.910Z,97.71
2017-06-23T03:38:02.489Z,98.10
2017-06-23T03:39:03.067Z,98.38
2017-06-23T03:40:03.646Z,98.10
2017-06-23T03:41:04.224Z,97.91
2017-06-23T03:42:04.801Z,98.00
2017-06-23T03:43:05.379Z,98.19
2017-06-23T03:44:05.957Z,97.61
2017-06-23T03:45:06.533Z,97.24
2017-06-23T03:46:07.112Z,97.61
2017-06-23T03:47:07.691Z,98.77
2017-06-23T03:48:08.270Z,98.38
2017-06-23T03:49:08.849Z,98.19
2017-06-23T03:50:09.428Z,98.77
2017-06-23T03:51:10.008Z,98.48
2017-06-23T03:52:10.586Z,98.38
2017-06-23T03:53:11.165Z,99.25
2017-06-23T03:54:11.746Z,99.05
2017-06-23T03:55:12.326Z,98.38
2017-06-23T03:56:12.908Z,99.34
2017-06-23T03:57:13.486Z,99.25
2017-06-23T03:58:14.065Z,99.05
2017-06-23T03:59:14.893Z,99.10
2017-06-23T04:00:15.471Z,99.39
2017-06-23T04:01:16.050Z,99.54
2017-06-23T04:02:16.628Z,99.63
2017-06-23T04:03:17.209Z,99.63
2017-06-23T04:04:17.792Z,99.73
2017-06-23T04:05:18.369Z,99.82
2017-06-23T04:06:18.960Z,99.05
2017-06-23T04:07:19.539Z,99.54
2017-06-23T04:08:20.121Z,99.63
2017-06-23T04:09:20.699Z,99.77
2017-06-23T04:10:21.278Z,99.44
2017-06-23T04:11:21.858Z,99.63
2017-06-23T04:12:22.437Z,99.73
2017-06-23T04:13:23.017Z,99.68
2017-06-23T04:14:23.596Z,98.86
2017-06-23T04:15:24.175Z,99.54
2017-06-23T04:16:24.753Z,99.05
2017-06-23T04:17:25.333Z,99.39
2017-06-23T04:18:25.912Z,99.63
2017-06-23T04:19:26.493Z,99.05
2017-06-23T04:20:27.074Z,99.77
2017-06-23T04:21:27.652Z,99.99
2017-06-23T04:22:28.230Z,99.63
2017-06-23T04:23:28.810Z,99.92
2017-06-23T04:24:29.389Z,99.05
2017-06-23T04:25:29.969Z,99.25
2017-06-23T04:26:30.549Z,98.67
2017-06-23T04:27:31.128Z,99.44
2017-06-23T04:28:31.708Z,99.15
2017-06-23T04:29:32.288Z,98.58
2017-06-23T04:30:32.869Z,98.86
2017-06-23T04:31:33.449Z,98.67
2017-06-23T04:32:34.030Z,98.77
2017-06-23T04:33:34.609Z,98.48
2017-06-23T04:34:35.202Z,98.86
2017-06-23T04:35:35.781Z,98.67
2017-06-23T04:36:36.360Z,99.25
2017-06-23T04:37:36.943Z,98.86
2017-06-23T04:38:37.524Z,98.38
2017-06-23T04:39:38.104Z,98.67
2017-06-23T04:40:38.683Z,98.58
2017-06-23T04:41:39.263Z,98.86
2017-06-23T04:42:39.842Z,98.00
2017-06-23T04:43:40.424Z,97.81
2017-06-23T04:44:41.002Z,98.00
2017-06-23T04:45:41.582Z,98.19
2017-06-23T04:46:42.161Z,98.10
2017-06-23T04:47:42.741Z,98.29
2017-06-23T04:48:43.323Z,98.77
2017-06-23T04:49:43.903Z,98.29
2017-06-23T04:50:44.484Z,97.24
2017-06-23T04:51:45.064Z,97.61
2017-06-23T04:52:45.645Z,97.42
2017-06-23T04:53:46.223Z,97.24
2017-06-23T04:54:46.804Z,97.33
2017-06-23T04:55:47.385Z,96.85
2017-06-23T04:56:47.965Z,96.94
2017-06-23T04:57:48.546Z,97.42
2017-06-23T04:58:49.127Z,97.24
2017-06-23T04:59:49.706Z,97.24
2017-06-23T05:00:50.288Z,97.52
2017-06-23T05:01:50.866Z,96.89
2017-06-23T05:02:51.447Z,96.75
2017-06-23T05:03:52.027Z,96.56
2017-06-23T05:04:52.609Z,96.94
2017-06-23T05:05:53.190Z,96.27
2017-06-23T05:06:53.769Z,96.32
2017-06-23T05:07:54.348Z,96.42
2017-06-23T05:08:54.933Z,96.56
2017-06-23T05:09:55.510Z,96.66
2017-06-23T05:10:56.091Z,95.55
2017-06-23T05:11:56.671Z,95.45
2017-06-23T05:12:57.251Z,95.50
2017-06-23T05:13:57.833Z,95.36
2017-06-23T05:14:58.413Z,95.36
2017-06-23T05:15:58.994Z,94.78
2017-06-23T05:16:59.574Z,94.40
2017-06-23T05:18:00.153Z,94.49
2017-06-23T05:19:00.736Z,94.78
2017-06-23T05:20:01.315Z,94.49
2017-06-23T05:21:01.896Z,93.73
2017-06-23T05:22:02.475Z,93.73
2017-06-23T05:23:03.055Z,94.11
2017-06-23T05:24:03.637Z,92.67
2017-06-23T05:25:04.217Z,92.38
2017-06-23T05:26:04.798Z,91.95
2017-06-23T05:27:05.379Z,92.43
2017-06-23T05:28:05.958Z,92.38
2017-06-23T05:29:06.540Z,92.19
2017-06-23T05:30:07.120Z,92.38
2017-06-23T05:31:07.702Z,92.19
2017-06-23T05:32:08.282Z,91.85
2017-06-23T05:33:08.860Z,90.84
2017-06-23T05:34:09.442Z,90.99
2017-06-23T05:35:10.022Z,91.52
2017-06-23T05:36:10.603Z,90.70
2017-06-23T05:37:11.185Z,90.41
2017-06-23T05:38:11.765Z,90.12
2017-06-23T05:39:12.346Z,90.12
2017-06-23T05:40:12.927Z,89.74
2017-06-23T05:41:13.508Z,89.83
2017-06-23T05:42:14.088Z,89.83
2017-06-23T05:43:14.670Z,89.45
2017-06-23T05:44:15.251Z,89.45
2017-06-23T05:45:15.830Z,90.22
2017-06-23T05:46:16.411Z,89.64
2017-06-23T05:47:16.990Z,89.31
2017-06-23T05:48:17.572Z,88.87
2017-06-23T05:49:18.153Z,89.54
2017-06-23T05:50:18.734Z,89.54
2017-06-23T05:51:19.314Z,88.39
2017-06-23T05:52:19.896Z,88.68
2017-06-23T05:53:20.488Z,88.24
2017-06-23T05:54:21.068Z,87.48
2017-06-23T05:55:21.648Z,86.90
2017-06-23T05:56:22.235Z,86.61
2017-06-23T05:57:22.811Z,87.24
2017-06-23T05:58:23.392Z,87.62
2017-06-23T05:59:23.984Z,86.71
2017-06-23T06:00:24.565Z,86.52
2017-06-23T06:01:25.158Z,86.90
2017-06-23T06:02:25.737Z,86.52
2017-06-23T06:03:26.318Z,86.71
2017-06-23T06:04:26.898Z,86.32
2017-06-23T06:05:27.479Z,85.36
2017-06-23T06:06:28.060Z,85.17
2017-06-23T06:07:28.641Z,85.99
2017-06-23T06:08:29.221Z,86.13
2017-06-23T06:09:29.801Z,84.98
2017-06-23T06:10:30.383Z,84.40
2017-06-23T06:11:30.965Z,84.30
2017-06-23T06:12:31.546Z,84.16
2017-06-23T06:13:32.125Z,84.25
2017-06-23T06:14:32.718Z,83.77
2017-06-23T06:15:33.299Z,84.30
2017-06-23T06:16:33.881Z,84.21
2017-06-23T06:17:34.474Z,84.01
2017-06-23T06:18:35.053Z,83.83
2017-06-23T06:19:35.634Z,84.69
2017-06-23T06:20:36.216Z,84.78
2017-06-23T06:21:36.796Z,84.30
2017-06-23T06:22:37.376Z,84.50
2017-06-23T06:23:37.957Z,84.78
2017-06-23T06:24:38.537Z,84.50
2017-06-23T06:25:39.118Z,84.30
2017-06-23T06:26:39.698Z,84.21
2017-06-23T06:27:40.280Z,83.44
2017-06-23T06:28:40.859Z,83.25
2017-06-23T06:29:41.440Z,83.44
2017-06-23T06:30:42.022Z,83.15
2017-06-23T06:31:42.604Z,83.25
2017-06-23T06:32:43.185Z,83.53
2017-06-23T06:33:43.764Z,82.86
2017-06-23T06:34:44.358Z,82.48
2017-06-23T06:35:44.942Z,82.67
2017-06-23T06:36:45.519Z,82.14
2017-06-23T06:37:46.101Z,82.09
2017-06-23T06:38:46.692Z,82.32
2017-06-23T06:39:47.274Z,82.42
2017-06-23T06:40:47.856Z,81.84
2017-06-23T06:41:48.437Z,81.46
2017-06-23T06:42:49.017Z,81.37
2017-06-23T06:43:49.598Z,80.69
2017-06-23T06:44:50.179Z,80.98
2017-06-23T06:45:50.761Z,81.07
2017-06-23T06:46:51.343Z,80.79
2017-06-23T06:47:51.923Z,81.75
2017-06-23T06:48:52.503Z,81.46
2017-06-23T06:49:53.084Z,80.35
2017-06-23T06:50:53.666Z,80.15
2017-06-23T06:51:54.273Z,79.67
2017-06-23T06:52:54.841Z,79.13
2017-06-23T06:53:55.435Z,78.85
2017-06-23T06:54:56.016Z,78.52
2017-06-23T06:55:56.599Z,78.13
2017-06-23T06:56:57.178Z,78.94
2017-06-23T06:57:57.758Z,78.27
2017-06-23T06:58:58.341Z,78.27
2017-06-23T06:59:58.922Z,78.08
2017-06-23T07:00:59.504Z,79.28
2017-06-23T07:02:00.084Z,79.67
2017-06-23T07:03:00.664Z,79.58
2017-06-23T07:04:01.247Z,79.67
2017-06-23T07:05:01.829Z,79.67
2017-06-23T07:06:02.411Z,78.90
2017-06-23T07:07:02.992Z,79.61
2017-06-23T07:08:03.575Z,77.94
2017-06-23T07:09:04.155Z,77.75
2017-06-23T07:10:04.735Z,79.38
2017-06-23T07:11:05.319Z,79.28
2017-06-23T07:12:05.899Z,78.65
2017-06-23T07:13:06.482Z,77.88
2017-06-23T07:14:07.065Z,79.28
2017-06-23T07:15:07.644Z,78.94
2017-06-23T07:16:08.230Z,77.50
2017-06-23T07:17:08.807Z,77.31
2017-06-23T07:18:09.390Z,77.21
2017-06-23T07:19:09.971Z,77.98
2017-06-23T07:20:10.552Z,77.92
2017-06-23T07:21:11.134Z,77.31
2017-06-23T07:22:11.714Z,76.92
2017-06-23T07:23:12.297Z,76.76
2017-06-23T07:24:12.878Z,75.90
2017-06-23T07:25:13.459Z,75.32
2017-06-23T07:26:14.041Z,75.80
2017-06-23T07:27:14.634Z,75.26
2017-06-23T07:28:15.219Z,73.33
2017-06-23T07:29:15.796Z,73.72
2017-06-23T07:30:16.378Z,73.82
2017-06-23T07:31:16.960Z,73.53
2017-06-23T07:32:17.542Z,74.01
2017-06-23T07:33:18.123Z,74.65
2017-06-23T07:34:18.705Z,74.88
2017-06-23T07:35:19.285Z,74.20
2017-06-23T07:36:19.867Z,75.03
2017-06-23T07:37:20.452Z,75.03
2017-06-23T07:38:21.030Z,74.78
2017-06-23T07:39:21.613Z,74.20
2017-06-23T07:40:22.194Z,73.97
2017-06-23T07:41:22.776Z,74.40
2017-06-23T07:42:23.363Z,74.49
2017-06-23T07:43:23.939Z,73.91
2017-06-23T07:44:24.522Z,73.24
2017-06-23T07:45:25.104Z,73.43
2017-06-23T07:46:25.686Z,72.66
2017-06-23T07:47:26.270Z,73.72
2017-06-23T07:48:26.864Z,73.53
2017-06-23T07:49:27.445Z,73.43
2017-06-23T07:50:28.026Z,73.72
2017-06-23T07:51:28.609Z,74.58
2017-06-23T07:52:29.190Z,74.40
2017-06-23T07:53:29.773Z,74.30
2017-06-23T07:54:30.359Z,75.07
2017-06-23T07:55:30.937Z,75.51
2017-06-23T07:56:31.519Z,75.26
2017-06-23T07:57:32.099Z,74.30
2017-06-23T07:58:32.682Z,74.52
2017-06-23T07:59:33.263Z,73.53
2017-06-23T08:00:33.845Z,73.95
2017-06-23T08:01:34.427Z,74.01
2017-06-23T08:02:35.008Z,72.85
2017-06-23T08:03:35.590Z,72.50
2017-06-23T08:04:36.173Z,71.70
2017-06-23T08:05:36.756Z,73.24
2017-06-23T08:06:37.338Z,72.85
2017-06-23T08:07:37.919Z,73.05
2017-06-23T08:08:38.504Z,73.05
2017-06-23T08:09:39.086Z,72.08
2017-06-23T08:10:39.669Z,72.66
2017-06-23T08:11:40.248Z,72.27
2017-06-23T08:12:40.832Z,71.89
2017-06-23T08:13:41.417Z,72.21
2017-06-23T08:14:41.997Z,71.60
2017-06-23T08:15:42.578Z,71.73
2017-06-23T08:16:43.162Z,72.18
2017-06-23T08:17:43.744Z,71.73
2017-06-23T08:18:44.326Z,70.64
2017-06-23T08:19:44.908Z,71.41
2017-06-23T08:20:45.500Z,72.08
2017-06-23T08:21:46.096Z,72.47
2017-06-23T08:22:46.680Z,71.34
2017-06-23T08:23:47.263Z,72.31
2017-06-23T08:24:47.844Z,71.73
2017-06-23T08:25:48.426Z,72.50
2017-06-23T08:26:49.010Z,71.00
2017-06-23T08:27:49.594Z,70.64
2017-06-23T08:28:50.188Z,70.26
2017-06-23T08:29:50.772Z,69.16
2017-06-23T08:30:51.353Z,70.38
2017-06-23T08:31:51.935Z,70.57
2017-06-23T08:32:52.517Z,70.48
2017-06-23T08:33:53.099Z,70.67
2017-06-23T08:34:53.680Z,69.84
2017-06-23T08:35:54.263Z,70.28
2017-06-23T08:36:54.844Z,71.50
2017-06-23T08:37:55.426Z,71.77
2017-06-23T08:38:56.011Z,70.76
2017-06-23T08:39:56.592Z,71.60
2017-06-23T08:40:57.173Z,71.73
2017-06-23T08:41:57.754Z,72.56
2017-06-23T08:42:58.348Z,72.41
2017-06-23T08:43:58.931Z,73.08
2017-06-23T08:44:59.513Z,71.48
2017-06-23T08:46:00.096Z,71.58
2017-06-23T08:47:00.679Z,71.44
2017-06-23T08:48:01.263Z,71.83
2017-06-23T08:49:01.843Z,72.31
2017-06-23T08:50:02.426Z,71.48
2017-06-23T08:51:03.024Z,70.51
2017-06-23T08:52:03.603Z,69.97
2017-06-23T08:53:04.187Z,68.97
2017-06-23T08:54:04.769Z,69.64
2017-06-23T08:55:05.350Z,71.19
2017-06-23T08:56:05.932Z,70.42
2017-06-23T08:57:06.514Z,69.42
2017-06-23T08:58:07.097Z,70.57
2017-06-23T08:59:07.680Z,69.80
2017-06-23T09:00:08.263Z,70.70
2017-06-23T09:01:08.847Z,69.97
2017-06-23T09:02:09.430Z,68.94
2017-06-23T09:03:10.014Z,68.91
2017-06-23T09:04:10.594Z,68.55
2017-06-23T09:05:11.177Z,68.43
2017-06-23T09:06:11.760Z,69.16
2017-06-23T09:07:12.341Z,70.32
2017-06-23T09:08:12.924Z,70.90
2017-06-23T09:09:13.506Z,70.54
2017-06-23T09:10:14.089Z,70.06
2017-06-23T09:11:14.673Z,69.10
2017-06-23T09:12:15.256Z,69.39
2017-06-23T09:13:15.838Z,68.65
2017-06-23T09:14:16.421Z,68.75
2017-06-23T09:15:17.005Z,68.10
2017-06-23T09:16:17.588Z,65.98
2017-06-23T09:17:18.177Z,65.98
2017-06-23T09:18:18.753Z,66.17
2017-06-23T09:19:19.337Z,67.04
2017-06-23T09:20:19.921Z,65.69
2017-06-23T09:21:20.513Z,66.05
2017-06-23T09:22:21.107Z,65.53
2017-06-23T09:23:21.689Z,66.85
2017-06-23T09:24:22.271Z,67.94
2017-06-23T09:25:22.856Z,68.04
2017-06-23T09:26:23.436Z,68.23
2017-06-23T09:27:24.018Z,66.78
2017-06-23T09:28:24.599Z,67.20
2017-06-23T09:29:25.194Z,67.01
2017-06-23T09:30:25.776Z,66.05
2017-06-23T09:31:26.358Z,66.69
2017-06-23T09:32:26.944Z,66.33
2017-06-23T09:33:27.526Z,65.66
2017-06-23T09:34:28.109Z,66.14
2017-06-23T09:35:28.693Z,65.59
2017-06-23T09:36:29.287Z,65.40
2017-06-23T09:37:29.870Z,66.33
2017-06-23T09:38:30.452Z,65.47
2017-06-23T09:39:31.038Z,67.11
2017-06-23T09:40:31.620Z,66.36
2017-06-23T09:41:32.202Z,66.17
2017-06-23T09:42:32.786Z,66.27
2017-06-23T09:43:33.369Z,65.72
2017-06-23T09:44:33.952Z,65.59
2017-06-23T09:45:34.535Z,65.92
2017-06-23T09:46:35.127Z,66.05
2017-06-23T09:47:35.711Z,67.30
2017-06-23T09:48:36.295Z,67.11
2017-06-23T09:49:36.876Z,67.46
2017-06-23T09:50:37.460Z,68.33
2017-06-23T09:51:38.042Z,68.23
2017-06-23T09:52:38.889Z,67.75
2017-06-23T09:53:39.473Z,67.78
2017-06-23T09:54:40.059Z,67.78
2017-06-23T09:55:40.639Z,67.75
2017-06-23T09:56:41.220Z,68.07
2017-06-23T09:57:41.804Z,67.55
2017-06-23T09:58:42.388Z,68.33
2017-06-23T09:59:42.969Z,67.94
2017-06-23T10:00:43.552Z,68.91
2017-06-23T10:01:44.134Z,67.94
2017-06-23T10:02:44.718Z,67.94
2017-06-23T10:03:45.310Z,67.27
2017-06-23T10:04:45.892Z,66.88
2017-06-23T10:05:46.474Z,67.17
2017-06-23T10:06:47.058Z,66.97
2017-06-23T10:07:47.655Z,66.11
2017-06-23T10:08:48.238Z,66.53
2017-06-23T10:09:48.822Z,66.33
2017-06-23T10:10:49.404Z,65.08
2017-06-23T10:11:49.987Z,66.14
2017-06-23T10:12:50.573Z,65.47
2017-06-23T10:13:51.156Z,65.01
2017-06-23T10:14:51.738Z,64.72
2017-06-23T10:15:52.324Z,64.89
2017-06-23T10:16:52.907Z,65.56
2017-06-23T10:17:53.490Z,64.63
2017-06-23T10:18:54.073Z,64.24
2017-06-23T10:19:54.657Z,64.89
2017-06-23T10:20:55.242Z,64.53
2017-06-23T10:21:55.825Z,64.85
2017-06-23T10:22:56.408Z,64.72
2017-06-23T10:23:56.991Z,65.11
2017-06-23T10:24:57.575Z,65.11
2017-06-23T10:25:58.157Z,64.50
2017-06-23T10:26:58.739Z,64.69
2017-06-23T10:27:59.323Z,64.01
2017-06-23T10:28:59.905Z,63.53
2017-06-23T10:30:00.487Z,64.11
2017-06-23T10:31:01.072Z,64.40
2017-06-23T10:32:01.653Z,64.11
2017-06-23T10:33:02.247Z,64.56
2017-06-23T10:34:02.830Z,64.40
2017-06-23T10:35:03.426Z,64.01
2017-06-23T10:36:04.007Z,64.43
2017-06-23T10:37:04.590Z,64.72
2017-06-23T10:38:05.175Z,64.40
2017-06-23T10:39:05.758Z,64.82
2017-06-23T10:40:06.343Z,64.24
2017-06-23T10:41:06.925Z,63.47
2017-06-23T10:42:07.509Z,64.18
2017-06-23T10:43:08.103Z,63.73
2017-06-23T10:44:08.688Z,63.37
2017-06-23T10:45:09.271Z,62.66
2017-06-23T10:46:09.855Z,61.76
2017-06-23T10:47:10.450Z,61.02
2017-06-23T10:48:11.033Z,60.79
2017-06-23T10:49:11.616Z,61.86
2017-06-23T10:50:12.202Z,62.92
2017-06-23T10:51:12.785Z,62.15
2017-06-23T10:52:13.369Z,61.95
2017-06-23T10:53:13.952Z,61.11
2017-06-23T10:54:14.535Z,61.30
2017-06-23T10:55:15.131Z,61.40
2017-06-23T10:56:15.715Z,62.63
2017-06-23T10:57:16.311Z,63.60
2017-06-23T10:58:16.895Z,64.85
2017-06-23T10:59:17.480Z,63.82
2017-06-23T11:00:18.065Z,63.53
2017-06-23T11:01:18.646Z,62.73
2017-06-23T11:02:19.231Z,63.11
2017-06-23T11:03:19.815Z,61.98
2017-06-23T11:04:20.397Z,61.60
2017-06-23T11:05:20.980Z,61.15
2017-06-23T11:06:21.576Z,59.82
2017-06-23T11:07:22.157Z,59.33
2017-06-23T11:08:22.740Z,58.92
2017-06-23T11:09:23.335Z,58.85
2017-06-23T11:10:23.918Z,59.33
2017-06-23T11:11:24.501Z,59.11
2017-06-23T11:12:25.086Z,59.11
2017-06-23T11:13:25.670Z,59.31
2017-06-23T11:14:26.257Z,59.89
2017-06-23T11:15:26.838Z,60.47
2017-06-23T11:16:27.423Z,60.69
2017-06-23T11:17:28.008Z,60.89
2017-06-23T11:18:28.590Z,62.34
2017-06-23T11:19:29.175Z,62.15
2017-06-23T11:20:29.760Z,60.99
2017-06-23T11:21:30.345Z,60.41
2017-06-23T11:22:30.928Z,60.69
2017-06-23T11:23:31.527Z,60.82
2017-06-23T11:24:32.117Z,60.63
2017-06-23T11:25:32.691Z,60.24
2017-06-23T11:26:33.275Z,60.27
2017-06-23T11:27:33.857Z,60.21
2017-06-23T11:28:34.440Z,60.08
2017-06-23T11:29:35.022Z,60.44
2017-06-23T11:30:35.606Z,60.69
2017-06-23T11:31:36.188Z,60.72
2017-06-23T11:32:36.783Z,60.50
2017-06-23T11:33:37.366Z,60.11
2017-06-23T11:34:37.948Z,59.53
2017-06-23T11:35:38.532Z,60.69
2017-06-23T11:36:39.114Z,61.27
2017-06-23T11:37:39.696Z,60.99
2017-06-23T11:38:40.281Z,61.40
2017-06-23T11:39:40.862Z,61.98
2017-06-23T11:40:41.445Z,61.30
2017-06-23T11:41:42.027Z,60.53
2017-06-23T11:42:42.623Z,61.30
2017-06-23T11:43:43.204Z,61.50
2017-06-23T11:44:43.788Z,61.08
2017-06-23T11:45:44.373Z,61.37
2017-06-23T11:46:44.959Z,60.14
2017-06-23T11:47:45.543Z,60.79
2017-06-23T11:48:46.127Z,60.72
2017-06-23T11:49:46.711Z,61.02
2017-06-23T11:50:47.293Z,61.11
2017-06-23T11:51:47.879Z,61.50
2017-06-23T11:52:48.462Z,61.60
2017-06-23T11:53:49.046Z,61.89
2017-06-23T11:54:49.632Z,60.75
2017-06-23T11:55:50.218Z,60.57
2017-06-23T11:56:50.810Z,59.53
2017-06-23T11:57:51.393Z,60.47
2017-06-23T11:58:51.976Z,59.91
2017-06-23T11:59:52.563Z,58.59
2017-06-23T12:00:53.156Z,57.88
2017-06-23T12:01:53.741Z,59.33
2017-06-23T12:02:54.324Z,58.98
2017-06-23T12:03:54.909Z,57.48
2017-06-23T12:04:55.493Z,57.48
2017-06-23T12:05:56.090Z,57.45
2017-06-23T12:06:56.673Z,58.72
2017-06-23T12:07:57.258Z,58.81
2017-06-23T12:08:57.856Z,59.17
2017-06-23T12:09:58.440Z,59.14
2017-06-23T12:10:59.024Z,60.08
2017-06-23T12:11:59.608Z,60.47
2017-06-23T12:13:00.192Z,59.91
2017-06-23T12:14:00.778Z,59.43
2017-06-23T12:15:01.360Z,58.63
2017-06-23T12:16:01.945Z,59.63
2017-06-23T12:17:02.529Z,59.53
2017-06-23T12:18:03.112Z,58.56
2017-06-23T12:19:03.696Z,59.43
2017-06-23T12:20:04.278Z,60.11
2017-06-23T12:21:04.861Z,61.33
2017-06-23T12:22:05.448Z,61.92
2017-06-23T12:23:06.040Z,62.11
2017-06-23T12:24:06.623Z,62.27
2017-06-23T12:25:07.208Z,61.92
2017-06-23T12:26:07.791Z,60.85
2017-06-23T12:27:08.376Z,61.63
2017-06-23T12:28:08.960Z,62.01
2017-06-23T12:29:09.544Z,62.59
2017-06-23T12:30:10.130Z,61.82
2017-06-23T12:31:10.714Z,61.66
2017-06-23T12:32:11.298Z,61.27
2017-06-23T12:33:11.884Z,61.56
2017-06-23T12:34:12.466Z,62.24
2017-06-23T12:35:13.049Z,61.53
2017-06-23T12:36:13.633Z,62.69
2017-06-23T12:37:14.218Z,62.40
2017-06-23T12:38:14.804Z,61.43
2017-06-23T12:39:15.388Z,61.24
2017-06-23T12:40:15.971Z,60.78
2017-06-23T12:41:16.557Z,61.43
2017-06-23T12:42:17.152Z,60.88
2017-06-23T12:43:17.736Z,59.72
2017-06-23T12:44:18.322Z,59.63
2017-06-23T12:45:18.904Z,59.50
2017-06-23T12:46:19.489Z,59.53
2017-06-23T12:47:20.075Z,58.72
2017-06-23T12:48:20.659Z,59.43
2017-06-23T12:49:21.242Z,59.36
2017-06-23T12:50:21.829Z,58.69
2017-06-23T12:51:22.411Z,58.49
2017-06-23T12:52:23.007Z,57.91
2017-06-23T12:53:23.593Z,57.91
2017-06-23T12:54:24.177Z,58.88
2017-06-23T12:55:24.761Z,58.78
2017-06-23T12:56:25.346Z,57.88
2017-06-23T12:57:25.929Z,57.81
2017-06-23T12:58:26.514Z,58.17
2017-06-23T12:59:27.095Z,57.43
2017-06-23T13:00:27.679Z,57.20